createdAt,value
2018-08-25T00:02:07.858Z,91.40
2018-08-25T00:04:38.475Z,91.10
2018-08-25T00:07:08.416Z,90.90
2018-08-25T00:09:43.179Z,91.10
2018-08-25T00:12:14.633Z,91.40
2018-08-25T00:14:46.087Z,91.10
2018-08-25T00:17:16.323Z,91.80
2018-08-25T00:19:47.546Z,90.80
2018-08-25T00:22:19.530Z,91.20
2018-08-25T00:24:50.850Z,91.60
2018-08-25T00:27:21.223Z,91.50
2018-08-25T00:29:52.970Z,91.80
2018-08-25T00:32:25.207Z,92.20
2018-08-25T00:34:55.512Z,92.20
2018-08-25T00:37:26.434Z,92.10
2018-08-25T00:39:55.955Z,91.70
2018-08-25T00:42:25.360Z,91.90
2018-08-25T00:44:55.139Z,92.20
2018-08-25T00:47:24.595Z,92.30
2018-08-25T00:49:55.608Z,92.60
2018-08-25T00:52:26.247Z,92.70
2018-08-25T00:54:56.934Z,93.10
2018-08-25T00:57:28.458Z,92.60
2018-08-25T00:59:59.650Z,92.50
2018-08-25T01:02:30.162Z,93.10
2018-08-25T01:05:00.670Z,92.60
2018-08-25T01:07:30.044Z,93.20
2018-08-25T01:09:59.823Z,93.00
2018-08-25T01:12:30.258Z,92.90
2018-08-25T01:15:00.586Z,93.30
2018-08-25T01:17:31.491Z,92.80
2018-08-25T01:20:01.748Z,92.90
2018-08-25T01:22:32.450Z,93.20
2018-08-25T01:25:03.897Z,93.20
2018-08-25T01:27:34.102Z,93.20
2018-08-25T01:30:04.338Z,93.00
2018-08-25T01:32:35.419Z,93.30
2018-08-25T01:35:06.493Z,93.30
2018-08-25T01:37:37.907Z,93.10
2018-08-25T01:40:09.499Z,93.80
2018-08-25T01:42:41.630Z,93.40
2018-08-25T01:45:11.503Z,93.80
2018-08-25T01:47:42.407Z,93.60
2018-08-25T01:50:12.587Z,93.80
2018-08-25T01:52:42.766Z,93.60
2018-08-25T01:55:15.422Z,93.40
2018-08-25T01:57:46.519Z,93.40
2018-08-25T02:00:17.064Z,93.80
2018-08-25T02:02:47.788Z,94.20
2018-08-25T02:05:17.837Z,93.90
2018-08-25T02:07:48.451Z,93.70
2018-08-25T02:10:20.621Z,94.40
2018-08-25T02:12:50.831Z,93.70
2018-08-25T02:15:20.713Z,93.90
2018-08-25T02:17:50.718Z,94.40
2018-08-25T02:20:21.169Z,95.10
2018-08-25T02:22:52.391Z,95.20
2018-08-25T02:25:24.154Z,95.60
2018-08-25T02:27:54.366Z,97.80
2018-08-25T02:30:24.426Z,99.80
2018-08-25T02:32:55.096Z,99.90
2018-08-25T02:35:25.937Z,99.90
2018-08-25T02:37:56.355Z,99.90
2018-08-25T02:40:27.394Z,99.90
2018-08-25T02:42:58.350Z,99.90
2018-08-25T02:45:28.675Z,99.90
2018-08-25T02:47:58.023Z,99.90
2018-08-25T02:50:27.439Z,99.90
2018-08-25T02:52:58.026Z,99.90
2018-08-25T02:55:29.801Z,99.90
2018-08-25T02:58:00.647Z,99.90
2018-08-25T03:00:30.511Z,99.90
2018-08-25T03:03:01.549Z,99.90
2018-08-25T03:05:32.153Z,99.90
2018-08-25T03:08:03.527Z,99.90
2018-08-25T03:10:33.599Z,99.90
2018-08-25T03:13:02.671Z,99.90
2018-08-25T03:15:32.147Z,99.90
2018-08-25T03:18:02.639Z,99.90
2018-08-25T03:23:03.443Z,99.90
2018-08-25T03:25:33.195Z,99.90
2018-08-25T03:28:03.533Z,99.90
2018-08-25T03:30:33.131Z,99.90
2018-08-25T03:35:34.200Z,99.90
2018-08-25T03:38:05.345Z,99.90
2018-08-25T03:40:35.250Z,99.90
2018-08-25T03:43:05.647Z,99.90
2018-08-25T03:45:37.898Z,99.90
2018-08-25T03:48:08.531Z,99.90
2018-08-25T03:50:38.118Z,99.90
2018-08-25T03:53:08.802Z,99.90
2018-08-25T03:55:39.561Z,99.90
2018-08-25T03:58:10.135Z,99.90
2018-08-25T04:00:40.370Z,99.90
2018-08-25T04:03:12.188Z,99.90
2018-08-25T04:05:42.329Z,99.90
2018-08-25T04:08:12.422Z,99.90
2018-08-25T04:10:42.878Z,99.90
2018-08-25T04:13:14.391Z,99.90
2018-08-25T04:15:44.507Z,99.90
2018-08-25T04:18:15.833Z,99.90
2018-08-25T04:20:46.462Z,99.90
2018-08-25T04:23:16.826Z,99.90
2018-08-25T04:28:15.262Z,99.90
2018-08-25T04:30:44.767Z,99.90
2018-08-25T04:33:14.796Z,99.90
2018-08-25T04:35:46.049Z,99.90
2018-08-25T04:38:16.573Z,99.90
2018-08-25T04:40:48.086Z,99.90
2018-08-25T04:43:19.725Z,99.90
2018-08-25T04:45:49.427Z,99.90
2018-08-25T04:48:20.187Z,99.90
2018-08-25T04:50:52.731Z,99.90
2018-08-25T04:53:23.803Z,99.90
2018-08-25T04:55:54.203Z,99.90
2018-08-25T04:58:24.483Z,99.90
2018-08-25T05:00:56.402Z,99.90
2018-08-25T05:03:26.313Z,99.90
2018-08-25T05:05:57.487Z,99.90
2018-08-25T05:08:28.999Z,99.90
2018-08-25T05:10:59.359Z,99.90
2018-08-25T05:13:29.030Z,99.90
2018-08-25T05:15:59.306Z,99.90
2018-08-25T05:18:31.249Z,99.90
2018-08-25T05:21:00.683Z,99.90
2018-08-25T05:26:00.325Z,99.90
2018-08-25T05:28:30.471Z,99.90
2018-08-25T05:31:01.464Z,99.90
2018-08-25T05:33:31.334Z,99.90
2018-08-25T05:36:02.595Z,99.90
2018-08-25T05:38:32.603Z,99.90
2018-08-25T05:41:03.706Z,99.90
2018-08-25T05:43:34.438Z,99.90
2018-08-25T05:46:04.343Z,99.90
2018-08-25T05:48:36.101Z,99.90
2018-08-25T05:51:06.953Z,99.90
2018-08-25T05:53:37.470Z,99.90
2018-08-25T05:56:07.492Z,99.90
2018-08-25T05:58:39.316Z,99.90
2018-08-25T06:01:11.774Z,99.90
2018-08-25T06:03:43.058Z,99.90
2018-08-25T06:06:13.670Z,99.90
2018-08-25T06:08:43.526Z,99.90
2018-08-25T06:11:13.131Z,99.90
2018-08-25T06:13:43.119Z,99.90
2018-08-25T06:16:14.871Z,99.90
2018-08-25T06:18:45.575Z,99.90
2018-08-25T06:21:15.659Z,99.90
2018-08-25T06:23:46.463Z,99.90
2018-08-25T06:26:16.437Z,99.90
2018-08-25T06:28:46.363Z,99.90
2018-08-25T06:31:16.610Z,99.90
2018-08-25T06:33:46.518Z,99.90
2018-08-25T06:36:16.434Z,99.90
2018-08-25T06:38:46.148Z,99.90
2018-08-25T06:41:16.813Z,99.90
2018-08-25T06:43:46.144Z,99.90
2018-08-25T06:46:15.598Z,99.90
2018-08-25T06:48:45.391Z,99.90
2018-08-25T06:51:16.682Z,99.90
2018-08-25T06:53:47.136Z,99.90
2018-08-25T06:56:17.618Z,99.90
2018-08-25T06:58:47.570Z,99.90
2018-08-25T07:01:18.247Z,99.90
2018-08-25T07:03:47.362Z,99.90
2018-08-25T07:06:17.362Z,99.90
2018-08-25T07:08:48.750Z,99.90
2018-08-25T07:11:19.499Z,99.90
2018-08-25T07:13:49.445Z,99.90
2018-08-25T07:16:19.537Z,99.90
2018-08-25T07:18:50.518Z,99.90
2018-08-25T07:21:22.018Z,99.90
2018-08-25T07:23:52.674Z,99.90
2018-08-25T07:26:22.802Z,99.90
2018-08-25T07:28:53.944Z,99.90
2018-08-25T07:31:25.423Z,99.90
2018-08-25T07:33:55.721Z,99.90
2018-08-25T07:36:27.809Z,99.90
2018-08-25T07:38:58.559Z,99.90
2018-08-25T07:41:28.514Z,99.90
2018-08-25T07:43:58.727Z,99.90
2018-08-25T07:46:29.367Z,99.90
2018-08-25T07:49:01.394Z,99.90
2018-08-25T07:51:32.926Z,99.90
2018-08-25T07:54:03.294Z,99.90
2018-08-25T07:56:34.373Z,99.90
2018-08-25T07:59:03.678Z,99.90
2018-08-25T08:01:32.764Z,99.90
2018-08-25T08:04:03.415Z,99.90
2018-08-25T08:06:33.822Z,99.90
2018-08-25T08:09:06.359Z,99.90
2018-08-25T08:11:37.599Z,99.90
2018-08-25T08:14:08.572Z,99.90
2018-08-25T08:19:09.760Z,99.90
2018-08-25T08:21:39.696Z,99.90
2018-08-25T08:24:08.870Z,99.90
2018-08-25T08:26:38.734Z,99.90
2018-08-25T08:29:10.496Z,99.90
2018-08-25T08:31:40.026Z,99.90
2018-08-25T08:34:11.338Z,99.90
2018-08-25T08:36:40.687Z,99.90
2018-08-25T08:39:10.294Z,99.90
2018-08-25T08:41:40.477Z,99.90
2018-08-25T08:44:10.127Z,99.90
2018-08-25T08:46:41.038Z,99.90
2018-08-25T08:49:12.295Z,99.90
2018-08-25T08:51:43.422Z,99.90
2018-08-25T08:54:13.795Z,99.90
2018-08-25T08:56:44.076Z,99.90
2018-08-25T08:59:14.633Z,99.90
2018-08-25T09:01:47.475Z,99.90
2018-08-25T09:04:17.481Z,99.90
2018-08-25T09:09:19.212Z,99.90
2018-08-25T09:11:49.334Z,99.90
2018-08-25T09:14:18.774Z,99.90
2018-08-25T09:16:48.759Z,99.90
2018-08-25T09:19:19.745Z,99.90
2018-08-25T09:21:50.382Z,99.90
2018-08-25T09:24:20.099Z,99.30
2018-08-25T09:26:52.056Z,99.60
2018-08-25T09:29:24.067Z,99.90
2018-08-25T09:31:53.977Z,98.00
2018-08-25T09:34:23.656Z,99.80
2018-08-25T09:39:24.207Z,98.90
2018-08-25T09:41:54.431Z,99.30
2018-08-25T09:44:24.914Z,99.20
2018-08-25T09:46:56.094Z,98.60
2018-08-25T09:49:27.848Z,97.70
2018-08-25T09:51:58.595Z,98.50
2018-08-25T09:54:29.307Z,98.80
2018-08-25T09:56:59.042Z,97.30
2018-08-25T09:59:31.018Z,97.50
2018-08-25T10:02:02.371Z,97.80
2018-08-25T10:04:33.704Z,98.50
2018-08-25T10:09:34.268Z,98.40
2018-08-25T10:12:04.307Z,99.00
2018-08-25T10:14:34.398Z,98.10
2018-08-25T10:17:05.746Z,97.80
2018-08-25T10:19:36.159Z,99.20
2018-08-25T10:22:05.651Z,98.60
2018-08-25T10:24:36.342Z,98.90
2018-08-25T10:27:06.182Z,99.40
2018-08-25T10:29:37.230Z,99.70
2018-08-25T10:32:07.683Z,98.20
2018-08-25T10:34:38.250Z,98.20
2018-08-25T10:37:07.634Z,97.80
2018-08-25T10:39:37.666Z,98.50
2018-08-25T10:42:08.152Z,98.20
2018-08-25T10:44:37.460Z,97.80
2018-08-25T10:47:08.282Z,96.80
2018-08-25T10:49:38.382Z,97.20
2018-08-25T10:52:08.414Z,96.30
2018-08-25T10:54:38.507Z,96.60
2018-08-25T10:57:09.566Z,97.60
2018-08-25T11:02:18.259Z,96.90
2018-08-25T11:04:49.671Z,97.20
2018-08-25T11:07:22.772Z,96.60
2018-08-25T11:09:54.195Z,96.70
2018-08-25T11:12:25.031Z,97.20
2018-08-25T11:14:55.431Z,95.90
2018-08-25T11:17:25.647Z,95.90
2018-08-25T11:19:55.567Z,95.80
2018-08-25T11:22:26.613Z,95.50
2018-08-25T11:24:57.488Z,95.90
2018-08-25T11:27:29.388Z,95.30
2018-08-25T11:29:59.243Z,95.00
2018-08-25T11:32:29.270Z,95.10
2018-08-25T11:35:00.591Z,95.50
2018-08-25T11:37:31.529Z,94.90
2018-08-25T11:40:01.215Z,96.00
2018-08-25T11:42:31.139Z,96.10
2018-08-25T11:45:00.528Z,95.40
2018-08-25T11:47:32.387Z,95.60
2018-08-25T11:50:02.006Z,96.80
2018-08-25T11:52:32.373Z,96.00
2018-08-25T11:55:01.414Z,96.10
2018-08-25T11:57:30.599Z,96.80
2018-08-25T12:00:00.862Z,96.40
2018-08-25T12:02:32.305Z,97.80
2018-08-25T12:05:02.889Z,98.10
2018-08-25T12:07:33.135Z,97.80
2018-08-25T12:10:02.850Z,97.20
2018-08-25T12:12:34.043Z,97.60
2018-08-25T12:15:03.506Z,97.60
2018-08-25T12:17:34.483Z,97.90
2018-08-25T12:20:05.478Z,97.10
2018-08-25T12:22:36.902Z,97.10
2018-08-25T12:25:07.769Z,96.40
2018-08-25T12:27:38.470Z,96.30
2018-08-25T12:30:09.944Z,94.90
2018-08-25T12:32:40.367Z,95.60
2018-08-25T12:35:11.396Z,97.70
2018-08-25T12:37:41.014Z,97.50
2018-08-25T12:40:12.491Z,99.00
2018-08-25T12:42:43.970Z,99.90
2018-08-25T12:45:16.367Z,99.90
2018-08-25T12:47:46.146Z,99.10
2018-08-25T12:50:16.514Z,97.90
2018-08-25T12:52:46.289Z,98.10
2018-08-25T12:55:17.017Z,97.70
2018-08-25T12:57:47.202Z,97.40
2018-08-25T13:00:17.742Z,95.50
2018-08-25T13:02:48.479Z,96.10
2018-08-25T13:05:18.562Z,94.50
2018-08-25T13:07:49.363Z,94.90
2018-08-25T13:10:20.579Z,93.70
2018-08-25T13:12:51.834Z,94.00
2018-08-25T13:15:22.341Z,93.70
2018-08-25T13:17:52.436Z,93.10
2018-08-25T13:20:22.181Z,92.60
2018-08-25T13:22:53.198Z,93.00
2018-08-25T13:25:24.167Z,92.80
2018-08-25T13:27:55.251Z,92.70
2018-08-25T13:30:24.550Z,93.30
2018-08-25T13:32:54.842Z,92.90
2018-08-25T13:35:25.302Z,93.00
2018-08-25T13:37:56.495Z,93.00
2018-08-25T13:40:28.026Z,91.30
2018-08-25T13:42:58.124Z,91.10
2018-08-25T13:45:28.722Z,91.40
2018-08-25T13:47:59.394Z,92.10
2018-08-25T13:52:58.394Z,88.50
2018-08-25T13:55:30.183Z,88.00
2018-08-25T13:58:00.406Z,87.20
2018-08-25T14:00:31.567Z,89.60
2018-08-25T14:03:03.141Z,89.70
2018-08-25T14:05:32.519Z,90.00
2018-08-25T14:08:02.447Z,90.50
2018-08-25T14:10:32.383Z,90.90
2018-08-25T14:13:02.955Z,91.40
2018-08-25T14:15:32.986Z,91.00
2018-08-25T14:18:03.709Z,91.00
2018-08-25T14:20:33.810Z,89.70
2018-08-25T14:23:03.612Z,89.80
2018-08-25T14:25:35.095Z,88.60
2018-08-25T14:28:05.300Z,89.30
2018-08-25T14:30:34.725Z,89.60
2018-08-25T14:33:04.717Z,88.00
2018-08-25T14:35:33.763Z,89.20
2018-08-25T14:38:03.372Z,89.40
2018-08-25T14:40:32.867Z,88.80
2018-08-25T14:43:03.442Z,90.30
2018-08-25T14:45:34.102Z,90.10
2018-08-25T14:48:04.290Z,90.70
2018-08-25T14:50:35.954Z,91.50
2018-08-25T14:53:07.439Z,91.40
2018-08-25T14:55:38.303Z,91.50
2018-08-25T14:58:08.149Z,91.20
2018-08-25T15:00:38.083Z,91.00
2018-08-25T15:03:08.659Z,91.00
2018-08-25T15:05:38.886Z,91.50
2018-08-25T15:08:08.619Z,90.80
2018-08-25T15:10:39.822Z,91.20
2018-08-25T15:13:10.389Z,91.50
2018-08-25T15:18:10.358Z,90.50
2018-08-25T15:20:39.916Z,91.10
2018-08-25T15:23:12.228Z,90.50
2018-08-25T15:25:42.297Z,90.90
2018-08-25T15:28:12.342Z,91.60
2018-08-25T15:30:43.248Z,91.60
2018-08-25T15:33:13.810Z,91.70
2018-08-25T15:35:45.215Z,92.10
2018-08-25T15:38:16.526Z,90.70
2018-08-25T15:40:46.608Z,88.70
2018-08-25T15:43:17.943Z,87.80
2018-08-25T15:45:48.575Z,89.50
2018-08-25T15:48:18.974Z,90.10
2018-08-25T15:50:48.639Z,90.30
2018-08-25T15:53:20.262Z,90.80
2018-08-25T15:55:49.879Z,91.40
2018-08-25T15:58:19.431Z,91.60
2018-08-25T16:00:48.811Z,91.50
2018-08-25T16:03:19.742Z,91.70
2018-08-25T16:08:19.467Z,92.00
2018-08-25T16:10:51.378Z,92.40
2018-08-25T16:13:21.954Z,91.70
2018-08-25T16:15:52.033Z,92.00
2018-08-25T16:18:22.591Z,92.40
2018-08-25T16:20:52.071Z,92.60
2018-08-25T16:23:22.443Z,92.90
2018-08-25T16:25:54.875Z,91.10
2018-08-25T16:28:26.651Z,90.40
2018-08-25T16:30:56.082Z,90.50
2018-08-25T16:33:27.974Z,90.90
2018-08-25T16:35:58.011Z,90.80
2018-08-25T16:38:30.214Z,91.10
2018-08-25T16:41:01.463Z,91.30
2018-08-25T16:43:32.143Z,91.60
2018-08-25T16:46:03.150Z,92.30
2018-08-25T16:48:33.728Z,91.10
2018-08-25T16:51:03.239Z,91.20
2018-08-25T16:53:33.071Z,91.80
2018-08-25T16:56:02.453Z,91.60
2018-08-25T16:58:31.455Z,92.00
2018-08-25T17:01:02.518Z,92.40
2018-08-25T17:03:34.131Z,93.80
2018-08-25T17:06:04.003Z,94.00
2018-08-25T17:08:35.143Z,94.90
2018-08-25T17:11:04.807Z,95.00
2018-08-25T17:13:36.967Z,95.50
2018-08-25T17:16:07.407Z,95.60
2018-08-25T17:18:37.973Z,95.10
2018-08-25T17:21:07.512Z,94.70
2018-08-25T17:23:37.158Z,94.90
2018-08-25T17:26:08.267Z,95.00
2018-08-25T17:28:39.303Z,95.10
2018-08-25T17:31:10.955Z,94.90
2018-08-25T17:33:41.168Z,95.20
2018-08-25T17:36:12.098Z,95.30
2018-08-25T17:38:42.337Z,95.50
2018-08-25T17:41:13.131Z,96.40
2018-08-25T17:43:42.444Z,96.30
2018-08-25T17:46:12.328Z,96.50
2018-08-25T17:48:44.023Z,95.60
2018-08-25T17:51:14.001Z,95.30
2018-08-25T17:53:43.076Z,95.70
2018-08-25T17:56:13.116Z,96.40
2018-08-25T17:58:43.731Z,95.80
2018-08-25T18:01:14.199Z,96.20
2018-08-25T18:03:44.472Z,96.10
2018-08-25T18:06:16.226Z,95.70
2018-08-25T18:08:48.327Z,96.10
2018-08-25T18:11:19.115Z,96.60
2018-08-25T18:13:50.698Z,96.20
2018-08-25T18:16:21.026Z,96.40
2018-08-25T18:18:51.416Z,96.70
2018-08-25T18:23:51.863Z,97.20
2018-08-25T18:26:24.074Z,97.70
2018-08-25T18:28:53.751Z,95.50
2018-08-25T18:31:25.406Z,95.60
2018-08-25T18:33:57.818Z,95.00
2018-08-25T18:36:27.906Z,94.20
2018-08-25T18:38:57.640Z,94.00
2018-08-25T18:41:28.097Z,94.40
2018-08-25T18:43:59.354Z,94.50
2018-08-25T18:46:31.201Z,94.80
2018-08-25T18:49:00.862Z,95.30
2018-08-25T18:51:31.175Z,95.60
2018-08-25T18:54:02.141Z,96.60
2018-08-25T18:56:33.171Z,96.30
2018-08-25T18:59:03.014Z,96.90
2018-08-25T19:01:33.315Z,97.30
2018-08-25T19:04:02.431Z,97.20
2018-08-25T19:06:32.299Z,97.50
2018-08-25T19:09:01.922Z,97.50
2018-08-25T19:11:32.043Z,97.70
2018-08-25T19:14:04.097Z,97.80
2018-08-25T19:16:35.683Z,98.30
2018-08-25T19:19:07.046Z,97.90
2018-08-25T19:21:36.872Z,98.40
2018-08-25T19:24:06.503Z,98.20
2018-08-25T19:26:36.082Z,98.50
2018-08-25T19:29:05.403Z,98.00
2018-08-25T19:31:35.183Z,98.30
2018-08-25T19:34:06.724Z,98.40
2018-08-25T19:36:37.503Z,98.60
2018-08-25T19:39:09.198Z,98.90
2018-08-25T19:41:40.475Z,99.30
2018-08-25T19:44:11.851Z,99.30
2018-08-25T19:46:41.774Z,99.50
2018-08-25T19:49:13.115Z,99.10
2018-08-25T19:51:42.375Z,99.40
2018-08-25T19:54:13.291Z,99.90
2018-08-25T19:56:43.802Z,99.40
2018-08-25T19:59:14.702Z,99.70
2018-08-25T20:01:44.811Z,99.50
2018-08-25T20:04:14.956Z,99.90
2018-08-25T20:06:47.362Z,99.90
2018-08-25T20:09:18.281Z,99.90
2018-08-25T20:11:49.926Z,99.90
2018-08-25T20:14:20.272Z,99.90
2018-08-25T20:16:51.463Z,99.90
2018-08-25T20:19:22.312Z,99.90
2018-08-25T20:21:54.107Z,99.90
2018-08-25T20:24:24.456Z,99.90
2018-08-25T20:26:55.313Z,99.90
2018-08-25T20:29:27.122Z,99.90
2018-08-25T20:31:58.943Z,99.90
2018-08-25T20:37:00.298Z,99.90
2018-08-25T20:39:30.350Z,99.90
2018-08-25T20:42:02.236Z,99.90
2018-08-25T20:44:32.926Z,99.90
2018-08-25T20:47:04.215Z,99.90
2018-08-25T20:49:34.195Z,99.90
2018-08-25T20:52:05.219Z,99.90
2018-08-25T20:54:35.986Z,99.90
2018-08-25T20:57:06.742Z,99.90
2018-08-25T20:59:36.871Z,99.90
2018-08-25T21:02:08.995Z,99.90
2018-08-25T21:04:40.025Z,99.90
2018-08-25T21:07:11.498Z,99.90
2018-08-25T21:12:10.877Z,99.90
2018-08-25T21:14:42.591Z,99.90
2018-08-25T21:17:11.970Z,99.90
2018-08-25T21:19:42.042Z,99.90
2018-08-25T21:22:13.005Z,99.90
2018-08-25T21:24:42.639Z,99.90
2018-08-25T21:27:12.778Z,99.90
2018-08-25T21:29:44.083Z,99.90
2018-08-25T21:32:15.226Z,99.90
2018-08-25T21:34:45.886Z,99.90
2018-08-25T21:37:17.058Z,99.90
2018-08-25T21:39:46.928Z,99.90
2018-08-25T21:42:17.802Z,99.90
2018-08-25T21:44:49.167Z,99.90
2018-08-25T21:47:20.242Z,99.90
2018-08-25T21:49:51.758Z,99.90
2018-08-25T21:52:22.254Z,99.90
2018-08-25T21:54:55.071Z,99.90
2018-08-25T21:57:25.141Z,99.90
2018-08-25T21:59:54.588Z,99.90
2018-08-25T22:02:25.531Z,99.90
2018-08-25T22:04:55.761Z,99.90
2018-08-25T22:07:26.962Z,99.90
2018-08-25T22:09:56.803Z,99.90
2018-08-25T22:12:26.742Z,99.90
2018-08-25T22:14:57.150Z,99.90
2018-08-25T22:17:27.381Z,99.90
2018-08-25T22:19:59.110Z,99.90
2018-08-25T22:22:30.022Z,99.90
2018-08-25T22:25:01.051Z,99.90
2018-08-25T22:27:32.282Z,99.90
2018-08-25T22:30:03.327Z,99.90
2018-08-25T22:32:34.210Z,99.90
2018-08-25T22:35:05.848Z,99.90
2018-08-25T22:37:35.319Z,99.90
2018-08-25T22:40:05.155Z,99.90
2018-08-25T22:42:35.214Z,99.90
2018-08-25T22:45:05.227Z,99.90
2018-08-25T22:47:34.847Z,99.90
2018-08-25T22:50:05.143Z,99.90
2018-08-25T22:52:41.039Z,99.90
2018-08-25T22:55:11.947Z,99.90
2018-08-25T22:57:43.933Z,99.90
2018-08-25T23:00:14.962Z,99.90
2018-08-25T23:02:46.147Z,99.90
2018-08-25T23:05:15.458Z,99.90
2018-08-25T23:07:44.999Z,99.90
2018-08-25T23:10:16.151Z,99.90
2018-08-25T23:12:46.272Z,99.90
2018-08-25T23:15:17.231Z,99.90
2018-08-25T23:17:47.805Z,99.90
2018-08-25T23:20:18.431Z,99.90
2018-08-25T23:22:49.930Z,99.90
2018-08-25T23:25:22.111Z,99.90
2018-08-25T23:27:54.370Z,99.90
2018-08-25T23:30:25.300Z,99.90
2018-08-25T23:32:56.238Z,99.90
2018-08-25T23:35:27.639Z,99.90
2018-08-25T23:37:56.905Z,99.90
2018-08-25T23:40:26.716Z,99.90
2018-08-25T23:42:55.841Z,99.90
2018-08-25T23:45:26.103Z,99.90
2018-08-25T23:47:57.090Z,99.90
2018-08-25T23:50:27.290Z,99.90
2018-08-25T23:52:58.298Z,99.90
2018-08-25T23:55:30.072Z,99.90
2018-08-25T23:57:59.739Z,99.90
